createdAt,value
2022-10-04T00:01:59.259Z,6.32
2022-10-04T00:04:41.517Z,6.75
2022-10-04T00:07:26.071Z,7.45
2022-10-04T00:10:15.991Z,7.10
2022-10-04T00:12:57.482Z,6.72
2022-10-04T00:15:37.440Z,7.00
2022-10-04T00:18:19.197Z,7.50
2022-10-04T00:20:53.271Z,7.35
2022-10-04T00:23:40.191Z,6.38
2022-10-04T00:26:23.335Z,6.95
2022-10-04T00:28:50.835Z,6.93
2022-10-04T00:31:29.186Z,7.95
2022-10-04T00:34:08.349Z,6.72
2022-10-04T00:36:54.971Z,6.40
2022-10-04T00:39:39.964Z,7.22
2022-10-04T00:42:28.312Z,6.68
2022-10-04T00:45:33.907Z,6.63
2022-10-04T00:48:09.003Z,6.65
2022-10-04T00:50:44.016Z,6.65
2022-10-04T00:53:28.788Z,5.68
2022-10-04T00:56:00.818Z,5.65
2022-10-04T00:58:33.445Z,6.32
2022-10-04T01:01:01.784Z,6.07
2022-10-04T01:03:30.839Z,6.82
2022-10-04T01:06:01.383Z,7.22
2022-10-04T01:08:44.382Z,6.90
2022-10-04T01:11:18.876Z,7.80
2022-10-04T01:14:31.507Z,6.97
2022-10-04T01:16:58.244Z,7.35
2022-10-04T01:19:24.909Z,7.32
2022-10-04T01:22:12.046Z,7.63
2022-10-04T01:24:41.731Z,7.70
2022-10-04T01:27:30.128Z,7.88
2022-10-04T01:29:56.866Z,7.15
2022-10-04T01:32:23.607Z,7.75
2022-10-04T01:34:50.460Z,7.55
2022-10-04T01:37:17.517Z,7.38
2022-10-04T01:39:44.700Z,8.07
2022-10-04T01:42:32.644Z,8.75
2022-10-04T01:45:29.781Z,7.20
2022-10-04T01:48:03.804Z,7.13
2022-10-04T01:50:47.974Z,7.57
2022-10-04T01:53:41.485Z,7.35
2022-10-04T01:56:40.190Z,7.82
2022-10-04T01:59:13.202Z,8.35
2022-10-04T02:01:52.269Z,7.65
2022-10-04T02:04:23.361Z,7.65
2022-10-04T02:06:54.228Z,7.78
2022-10-04T02:09:33.315Z,7.57
2022-10-04T02:12:00.902Z,7.75
2022-10-04T02:14:33.636Z,7.40
2022-10-04T02:17:03.325Z,7.35
2022-10-04T02:19:37.006Z,7.78
2022-10-04T02:22:05.476Z,8.35
2022-10-04T02:24:38.630Z,7.40
2022-10-04T02:27:06.375Z,7.43
2022-10-04T02:29:33.263Z,8.23
2022-10-04T02:32:19.470Z,8.57
2022-10-04T02:34:47.841Z,7.97
2022-10-04T02:37:15.370Z,7.85
2022-10-04T02:39:50.058Z,7.60
2022-10-04T02:42:26.718Z,8.80
2022-10-04T02:45:02.838Z,8.38
2022-10-04T02:47:47.628Z,8.10
2022-10-04T02:50:30.318Z,8.43
2022-10-04T02:53:32.453Z,8.27
2022-10-04T02:55:59.427Z,7.55
2022-10-04T02:58:26.999Z,8.32
2022-10-04T03:00:59.074Z,7.90
2022-10-04T03:03:27.562Z,7.80
2022-10-04T03:06:20.769Z,7.57
2022-10-04T03:08:52.921Z,7.22
2022-10-04T03:11:22.679Z,7.63
2022-10-04T03:13:52.982Z,7.57
2022-10-04T03:16:20.962Z,7.28
2022-10-04T03:18:49.963Z,7.53
2022-10-04T03:21:21.395Z,7.28
2022-10-04T03:23:51.079Z,7.40
2022-10-04T03:26:44.302Z,7.40
2022-10-04T03:29:14.379Z,6.78
2022-10-04T03:31:50.126Z,7.07
2022-10-04T03:34:24.284Z,7.60
2022-10-04T03:36:54.031Z,6.97
2022-10-04T03:39:28.296Z,6.90
2022-10-04T03:41:57.359Z,6.75
2022-10-04T03:44:24.660Z,7.15
2022-10-04T03:46:51.331Z,7.00
2022-10-04T03:49:33.787Z,7.03
2022-10-04T03:52:02.105Z,6.55
2022-10-04T03:54:30.319Z,6.63
2022-10-04T03:56:58.313Z,6.90
2022-10-04T03:59:27.837Z,7.13
2022-10-04T04:02:22.363Z,7.03
2022-10-04T04:05:19.939Z,6.80
2022-10-04T04:08:08.098Z,7.03
2022-10-04T04:10:38.565Z,6.68
2022-10-04T04:13:11.121Z,6.28
2022-10-04T04:15:43.452Z,6.85
2022-10-04T04:18:38.625Z,6.85
2022-10-04T04:21:08.153Z,6.63
2022-10-04T04:23:48.588Z,6.50
2022-10-04T04:26:23.565Z,7.13
2022-10-04T04:29:07.712Z,6.75
2022-10-04T04:31:40.699Z,6.47
2022-10-04T04:34:19.240Z,6.00
2022-10-04T04:36:46.297Z,6.10
2022-10-04T04:39:39.764Z,6.60
2022-10-04T04:42:42.493Z,5.63
2022-10-04T04:45:25.897Z,5.68
2022-10-04T04:47:56.258Z,5.38
2022-10-04T04:50:32.182Z,5.97
2022-10-04T04:53:14.360Z,5.70
2022-10-04T04:56:03.468Z,6.13
2022-10-04T04:58:35.691Z,5.57
2022-10-04T05:01:02.490Z,6.15
2022-10-04T05:03:34.095Z,5.38
2022-10-04T05:06:05.024Z,5.70
2022-10-04T05:08:40.298Z,6.15
2022-10-04T05:11:08.377Z,5.70
2022-10-04T05:13:44.590Z,5.35
2022-10-04T05:16:16.375Z,5.78
2022-10-04T05:18:43.396Z,5.53
2022-10-04T05:21:24.418Z,5.07
2022-10-04T05:23:52.006Z,4.80
2022-10-04T05:26:27.961Z,5.20
2022-10-04T05:29:09.460Z,5.57
2022-10-04T05:32:13.320Z,5.03
2022-10-04T05:34:45.335Z,5.32
2022-10-04T05:37:37.658Z,5.35
2022-10-04T05:40:13.216Z,5.10
2022-10-04T05:42:45.408Z,5.22
2022-10-04T05:45:25.084Z,4.75
2022-10-04T05:47:57.612Z,4.80
2022-10-04T05:50:35.193Z,4.72
2022-10-04T05:53:15.508Z,5.32
2022-10-04T05:55:52.986Z,4.95
2022-10-04T05:58:40.855Z,4.88
2022-10-04T06:01:23.312Z,4.57
2022-10-04T06:04:16.580Z,4.70
2022-10-04T06:06:58.514Z,4.43
2022-10-04T06:09:54.371Z,5.22
2022-10-04T06:12:44.372Z,4.82
2022-10-04T06:15:31.790Z,5.07
2022-10-04T06:18:24.886Z,5.03
2022-10-04T06:21:04.565Z,5.10
2022-10-04T06:23:36.158Z,4.63
2022-10-04T06:26:12.011Z,4.82
2022-10-04T06:28:47.929Z,4.45
2022-10-04T06:31:26.045Z,4.65
2022-10-04T06:34:22.034Z,5.35
2022-10-04T06:37:41.915Z,4.65
2022-10-04T06:40:25.949Z,4.70
2022-10-04T06:42:58.436Z,4.70
2022-10-04T06:45:39.705Z,4.88
2022-10-04T06:48:18.575Z,4.68
2022-10-04T06:51:26.368Z,4.72
2022-10-04T06:54:04.334Z,4.38
2022-10-04T06:56:57.563Z,4.80
2022-10-04T06:59:42.499Z,4.65
2022-10-04T07:02:26.549Z,4.95
2022-10-04T07:05:09.368Z,4.80
2022-10-04T07:07:40.388Z,4.60
2022-10-04T07:10:37.989Z,4.70
2022-10-04T07:13:33.861Z,4.82
2022-10-04T07:16:21.435Z,4.60
2022-10-04T07:19:08.342Z,4.93
2022-10-04T07:21:54.109Z,5.10
2022-10-04T07:24:27.029Z,4.78
2022-10-04T07:26:56.153Z,4.35
2022-10-04T07:29:35.204Z,4.95
2022-10-04T07:32:06.500Z,4.85
2022-10-04T07:34:41.048Z,4.53
2022-10-04T07:37:12.974Z,4.95
2022-10-04T07:39:43.699Z,5.13
2022-10-04T07:42:31.238Z,4.50
2022-10-04T07:45:00.773Z,4.95
2022-10-04T07:47:27.928Z,4.93
2022-10-04T07:49:55.137Z,4.70
2022-10-04T07:52:42.485Z,4.60
2022-10-04T07:55:22.559Z,4.80
2022-10-04T07:58:21.410Z,4.75
2022-10-04T08:01:00.531Z,4.47
2022-10-04T08:03:39.734Z,4.82
2022-10-04T08:06:26.130Z,5.03
2022-10-04T08:09:03.450Z,4.93
2022-10-04T08:11:48.743Z,4.65
2022-10-04T08:14:36.951Z,4.78
2022-10-04T08:17:41.704Z,5.03
2022-10-04T08:20:20.792Z,4.78
2022-10-04T08:22:53.149Z,5.10
2022-10-04T08:25:33.285Z,4.90
2022-10-04T08:28:24.621Z,5.00
2022-10-04T08:31:21.353Z,5.28
2022-10-04T08:33:57.255Z,5.30
2022-10-04T08:36:23.976Z,5.18
2022-10-04T08:38:57.507Z,4.80
2022-10-04T08:41:46.094Z,5.28
2022-10-04T08:44:46.661Z,4.97
2022-10-04T08:47:21.179Z,4.82
2022-10-04T08:50:18.346Z,5.22
2022-10-04T08:53:16.496Z,4.82
2022-10-04T08:55:45.980Z,4.60
2022-10-04T08:58:29.164Z,5.63
2022-10-04T09:00:58.315Z,5.25
2022-10-04T09:03:45.939Z,5.43
2022-10-04T09:06:31.880Z,5.68
2022-10-04T09:09:07.429Z,5.00
2022-10-04T09:12:04.694Z,4.82
2022-10-04T09:15:01.997Z,5.35
2022-10-04T09:18:05.629Z,5.18
2022-10-04T09:20:54.148Z,5.20
2022-10-04T09:23:37.351Z,5.35
2022-10-04T09:26:23.916Z,5.38
2022-10-04T09:29:08.862Z,5.40
2022-10-04T09:31:44.604Z,4.40
2022-10-04T09:34:26.292Z,4.65
2022-10-04T09:37:19.541Z,5.50
2022-10-04T09:40:06.619Z,4.47
2022-10-04T09:42:33.613Z,4.20
2022-10-04T09:45:25.249Z,4.72
2022-10-04T09:48:08.424Z,4.97
2022-10-04T09:50:47.259Z,4.50
2022-10-04T09:53:45.027Z,4.22
2022-10-04T09:56:43.290Z,4.72
2022-10-04T09:59:43.377Z,4.20
2022-10-04T10:02:40.358Z,4.15
2022-10-04T10:05:35.443Z,4.03
2022-10-04T10:08:13.136Z,4.20
2022-10-04T10:11:30.710Z,3.70
2022-10-04T10:14:25.950Z,4.10
2022-10-04T10:17:08.537Z,3.88
2022-10-04T10:20:00.194Z,3.90
2022-10-04T10:22:57.939Z,3.78
2022-10-04T10:25:43.514Z,3.70
2022-10-04T10:28:29.057Z,4.10
2022-10-04T10:31:23.766Z,3.40
2022-10-04T10:34:28.911Z,3.38
2022-10-04T10:37:37.163Z,3.63
2022-10-04T10:40:28.159Z,3.55
2022-10-04T10:43:01.000Z,3.35
2022-10-04T10:45:48.575Z,3.60
2022-10-04T10:48:24.321Z,3.50
2022-10-04T10:51:30.762Z,3.40
2022-10-04T10:54:26.363Z,3.75
2022-10-04T10:57:00.823Z,3.42
2022-10-04T11:00:09.423Z,3.60
2022-10-04T11:03:13.118Z,3.67
2022-10-04T11:06:02.234Z,3.85
2022-10-04T11:09:03.929Z,3.50
2022-10-04T11:11:42.538Z,3.20
2022-10-04T11:14:28.316Z,3.50
2022-10-04T11:17:13.601Z,3.00
2022-10-04T11:20:15.686Z,3.00
2022-10-04T11:22:44.911Z,3.13
2022-10-04T11:25:25.279Z,3.40
2022-10-04T11:28:19.497Z,3.58
2022-10-04T11:30:46.195Z,3.58
2022-10-04T11:33:37.854Z,4.10
2022-10-04T11:36:19.283Z,3.88
2022-10-04T11:39:06.941Z,3.00
2022-10-04T11:42:00.533Z,3.50
2022-10-04T11:44:36.240Z,3.40
2022-10-04T11:47:16.113Z,3.50
2022-10-04T11:50:28.008Z,3.55
2022-10-04T11:52:57.643Z,3.45
2022-10-04T11:55:39.482Z,3.28
2022-10-04T11:58:24.557Z,3.15
2022-10-04T12:01:30.450Z,3.20
2022-10-04T12:04:30.493Z,3.35
2022-10-04T12:07:26.590Z,3.10
2022-10-04T12:10:18.911Z,3.20
2022-10-04T12:13:04.717Z,3.35
2022-10-04T12:16:08.765Z,2.90
2022-10-04T12:18:44.282Z,2.60
2022-10-04T12:21:34.846Z,2.60
2022-10-04T12:24:20.279Z,3.00
2022-10-04T12:27:10.241Z,2.80
2022-10-04T12:30:02.777Z,2.70
2022-10-04T12:32:43.160Z,2.40
2022-10-04T12:35:22.405Z,2.03
2022-10-04T12:38:37.364Z,2.10
2022-10-04T12:41:24.853Z,1.90
2022-10-04T12:44:07.832Z,2.20
2022-10-04T12:46:40.433Z,1.80
2022-10-04T12:49:39.270Z,2.20
2022-10-04T12:52:29.135Z,2.40
2022-10-04T12:55:34.686Z,3.10
2022-10-04T12:58:16.240Z,2.17
2022-10-04T13:00:45.219Z,2.17
2022-10-04T13:03:40.165Z,2.42
2022-10-04T13:06:23.327Z,2.80
2022-10-04T13:09:25.658Z,2.25
2022-10-04T13:12:10.632Z,2.28
2022-10-04T13:14:46.741Z,2.35
2022-10-04T13:17:34.054Z,2.80
2022-10-04T13:20:26.135Z,2.50
2022-10-04T13:23:01.675Z,2.90
2022-10-04T13:25:53.468Z,2.70
2022-10-04T13:28:34.629Z,2.60
2022-10-04T13:31:14.749Z,2.72
2022-10-04T13:34:06.060Z,2.75
2022-10-04T13:37:00.459Z,2.80
2022-10-04T13:40:02.172Z,2.95
2022-10-04T13:43:04.441Z,2.53
2022-10-04T13:45:40.292Z,2.65
2022-10-04T13:48:23.478Z,2.55
2022-10-04T13:51:01.387Z,2.95
2022-10-04T13:54:09.818Z,2.40
2022-10-04T13:56:59.280Z,2.78
2022-10-04T13:59:38.406Z,2.72
2022-10-04T14:02:13.890Z,2.60
2022-10-04T14:05:15.833Z,2.42
2022-10-04T14:08:10.737Z,2.22
2022-10-04T14:10:48.672Z,2.78
2022-10-04T14:13:40.670Z,2.30
2022-10-04T14:16:46.044Z,2.80
2022-10-04T14:19:36.958Z,2.60
2022-10-04T14:22:28.454Z,2.38
2022-10-04T14:25:09.609Z,2.83
2022-10-04T14:28:11.837Z,2.50
2022-10-04T14:30:50.660Z,2.90
2022-10-04T14:33:32.286Z,2.95
2022-10-04T14:36:20.432Z,2.97
2022-10-04T14:39:02.537Z,2.95
2022-10-04T14:42:10.277Z,2.90
2022-10-04T14:44:58.792Z,2.50
2022-10-04T14:48:02.363Z,2.95
2022-10-04T14:50:57.790Z,2.45
2022-10-04T14:53:28.150Z,2.95
2022-10-04T14:56:29.438Z,2.50
2022-10-04T14:59:31.122Z,2.58
2022-10-04T15:02:00.865Z,2.67
2022-10-04T15:04:30.632Z,2.60
2022-10-04T15:07:02.216Z,2.83
2022-10-04T15:09:56.991Z,2.72
2022-10-04T15:13:11.528Z,3.10
2022-10-04T15:16:13.657Z,2.55
2022-10-04T15:19:00.210Z,2.50
2022-10-04T15:21:44.211Z,2.70
2022-10-04T15:24:19.256Z,2.33
2022-10-04T15:27:00.945Z,2.33
2022-10-04T15:30:00.301Z,2.70
2022-10-04T15:32:52.422Z,2.75
2022-10-04T15:35:30.961Z,2.08
2022-10-04T15:38:00.303Z,3.10
2022-10-04T15:40:40.903Z,2.67
2022-10-04T15:43:10.592Z,2.63
2022-10-04T15:46:04.917Z,2.53
2022-10-04T15:48:37.593Z,2.63
2022-10-04T15:51:14.796Z,2.72
2022-10-04T15:54:06.158Z,2.60
2022-10-04T15:57:00.532Z,2.67
2022-10-04T15:59:42.531Z,3.60
2022-10-04T16:02:20.958Z,2.78
2022-10-04T16:05:17.699Z,2.75
2022-10-04T16:07:59.154Z,3.35
2022-10-04T16:10:58.541Z,2.85
2022-10-04T16:13:51.478Z,2.75
2022-10-04T16:16:19.274Z,2.95
2022-10-04T16:19:10.848Z,2.47
2022-10-04T16:21:42.405Z,2.80
2022-10-04T16:24:18.321Z,2.72
2022-10-04T16:26:45.366Z,2.75
2022-10-04T16:29:42.498Z,3.20
2022-10-04T16:32:56.802Z,2.58
2022-10-04T16:35:31.758Z,2.90
2022-10-04T16:38:14.266Z,2.85
2022-10-04T16:40:53.166Z,3.15
2022-10-04T16:43:19.809Z,2.85
2022-10-04T16:45:52.355Z,3.22
2022-10-04T16:48:33.580Z,3.78
2022-10-04T16:51:18.702Z,3.25
2022-10-04T16:54:01.365Z,3.70
2022-10-04T16:56:32.812Z,3.45
2022-10-04T16:59:04.969Z,3.60
2022-10-04T17:01:40.746Z,3.40
2022-10-04T17:04:39.753Z,3.70
2022-10-04T17:07:18.531Z,3.42
2022-10-04T17:10:21.149Z,3.55
2022-10-04T17:13:30.256Z,3.40
2022-10-04T17:16:06.752Z,3.13
2022-10-04T17:19:03.647Z,3.35
2022-10-04T17:21:49.079Z,3.30
2022-10-04T17:24:51.417Z,3.05
2022-10-04T17:27:22.531Z,2.97
2022-10-04T17:30:12.492Z,3.35
2022-10-04T17:33:21.767Z,3.38
2022-10-04T17:35:57.396Z,2.80
2022-10-04T17:38:27.220Z,3.33
2022-10-04T17:41:02.468Z,3.70
2022-10-04T17:43:43.584Z,4.10
2022-10-04T17:46:29.172Z,4.20
2022-10-04T17:49:35.164Z,4.25
2022-10-04T17:52:23.551Z,4.22
2022-10-04T17:55:17.591Z,3.45
2022-10-04T17:57:48.124Z,3.65
2022-10-04T18:00:18.610Z,3.97
2022-10-04T18:03:17.070Z,4.22
2022-10-04T18:05:47.118Z,3.65
2022-10-04T18:08:38.745Z,3.70
2022-10-04T18:11:26.842Z,3.67
2022-10-04T18:14:05.700Z,3.63
2022-10-04T18:16:56.945Z,4.07
2022-10-04T18:19:51.683Z,3.70
2022-10-04T18:22:26.448Z,3.85
2022-10-04T18:25:32.099Z,3.88
2022-10-04T18:28:07.949Z,4.22
2022-10-04T18:30:46.671Z,4.95
2022-10-04T18:33:25.166Z,4.82
2022-10-04T18:36:31.986Z,3.97
2022-10-04T18:39:16.866Z,4.90
2022-10-04T18:42:02.869Z,4.63
2022-10-04T18:44:59.935Z,4.65
2022-10-04T18:47:37.072Z,4.32
2022-10-04T18:50:18.827Z,4.30
2022-10-04T18:53:14.987Z,4.65
2022-10-04T18:55:59.908Z,4.60
2022-10-04T18:59:00.424Z,4.85
2022-10-04T19:01:57.129Z,4.25
2022-10-04T19:04:37.769Z,4.25
2022-10-04T19:07:42.739Z,4.72
2022-10-04T19:10:49.435Z,5.05
2022-10-04T19:13:29.623Z,5.18
2022-10-04T19:16:15.206Z,4.35
2022-10-04T19:18:58.017Z,4.93
2022-10-04T19:21:37.850Z,4.82
2022-10-04T19:24:19.400Z,5.13
2022-10-04T19:27:01.482Z,4.85
2022-10-04T19:30:00.913Z,4.45
2022-10-04T19:32:51.500Z,5.13
2022-10-04T19:35:41.506Z,4.78
2022-10-04T19:38:53.928Z,5.32
2022-10-04T19:41:45.892Z,4.32
2022-10-04T19:44:21.545Z,5.13
2022-10-04T19:47:06.898Z,5.10
2022-10-04T19:49:56.768Z,4.90
2022-10-04T19:52:44.540Z,5.25
2022-10-04T19:55:43.786Z,5.13
2022-10-04T19:58:19.363Z,5.10
2022-10-04T20:00:46.591Z,5.13
2022-10-04T20:03:13.686Z,5.32
2022-10-04T20:05:53.231Z,5.30
2022-10-04T20:08:44.873Z,5.38
2022-10-04T20:11:39.384Z,5.40
2022-10-04T20:14:15.665Z,5.40
2022-10-04T20:16:53.178Z,5.57
2022-10-04T20:19:29.194Z,5.05
2022-10-04T20:22:08.415Z,4.90
2022-10-04T20:24:37.936Z,5.13
2022-10-04T20:27:11.951Z,5.13
2022-10-04T20:29:38.647Z,5.65
2022-10-04T20:32:06.559Z,5.18
2022-10-04T20:34:37.172Z,5.22
2022-10-04T20:37:05.889Z,5.60
2022-10-04T20:39:41.428Z,5.30
2022-10-04T20:42:29.276Z,5.63
2022-10-04T20:45:11.021Z,5.18
2022-10-04T20:47:46.624Z,4.97
2022-10-04T20:50:21.335Z,5.20
2022-10-04T20:52:59.727Z,5.63
2022-10-04T20:55:29.625Z,5.15
2022-10-04T20:58:02.971Z,5.40
2022-10-04T21:00:35.907Z,5.03
2022-10-04T21:03:18.774Z,5.32
2022-10-04T21:05:58.436Z,5.35
2022-10-04T21:08:26.476Z,4.97
2022-10-04T21:11:21.737Z,5.10
2022-10-04T21:13:52.855Z,5.82
2022-10-04T21:16:49.810Z,5.53
2022-10-04T21:19:44.552Z,5.68
2022-10-04T21:22:17.334Z,5.25
2022-10-04T21:24:50.226Z,5.47
2022-10-04T21:27:39.804Z,6.18
2022-10-04T21:30:12.769Z,6.00
2022-10-04T21:32:39.771Z,5.90
2022-10-04T21:35:08.230Z,6.20
2022-10-04T21:37:35.859Z,5.88
2022-10-04T21:40:03.825Z,6.10
2022-10-04T21:42:30.549Z,5.70
2022-10-04T21:44:57.347Z,6.20
2022-10-04T21:47:24.249Z,6.07
2022-10-04T21:49:52.069Z,6.03
2022-10-04T21:52:19.166Z,6.60
2022-10-04T21:54:46.258Z,6.13
2022-10-04T21:57:13.642Z,5.35
2022-10-04T21:59:40.621Z,6.03
2022-10-04T22:02:10.141Z,6.05
2022-10-04T22:04:38.137Z,6.15
2022-10-04T22:07:05.120Z,6.03
2022-10-04T22:09:33.177Z,6.28
2022-10-04T22:11:59.917Z,5.80
2022-10-04T22:14:26.682Z,5.38
2022-10-04T22:16:53.473Z,5.85
2022-10-04T22:19:20.284Z,6.15
2022-10-04T22:21:46.954Z,5.78
2022-10-04T22:24:20.034Z,5.30
2022-10-04T22:26:47.646Z,5.90
2022-10-04T22:29:16.679Z,6.05
2022-10-04T22:31:49.154Z,5.80
2022-10-04T22:34:19.120Z,5.88
2022-10-04T22:36:48.340Z,5.97
2022-10-04T22:39:18.014Z,6.05
2022-10-04T22:41:58.168Z,6.00
2022-10-04T22:44:34.067Z,6.07
2022-10-04T22:47:02.426Z,5.60
2022-10-04T22:49:37.287Z,5.82
2022-10-04T22:52:14.238Z,5.63
2022-10-04T22:54:45.112Z,5.95
2022-10-04T22:57:14.322Z,5.78
2022-10-04T22:59:55.581Z,5.25
2022-10-04T23:02:29.399Z,5.50
2022-10-04T23:05:00.908Z,5.53
2022-10-04T23:07:27.709Z,5.65
2022-10-04T23:09:54.526Z,5.50
2022-10-04T23:12:21.518Z,5.50
2022-10-04T23:14:48.256Z,5.75
2022-10-04T23:17:41.635Z,5.50
2022-10-04T23:20:17.645Z,5.28
2022-10-04T23:22:52.733Z,5.10
2022-10-04T23:25:23.272Z,5.38
2022-10-04T23:27:50.099Z,5.00
2022-10-04T23:30:19.933Z,5.03
2022-10-04T23:32:51.799Z,4.53
2022-10-04T23:35:24.551Z,4.97
2022-10-04T23:37:52.581Z,4.88
2022-10-04T23:40:22.020Z,5.10
2022-10-04T23:42:50.777Z,5.05
2022-10-04T23:45:26.934Z,4.70
2022-10-04T23:47:56.429Z,4.97
2022-10-04T23:50:41.781Z,4.63
2022-10-04T23:53:26.482Z,4.80
2022-10-04T23:55:55.021Z,4.38
2022-10-04T23:58:25.303Z,4.82
